Ploiesti, Romania
Current Conditions -  °F | °C
As of 1:00 PM on Wednesday 22 Oct 2014 (Local Time) from LROP Reporting Station
Broken Clouds Broken Clouds  
Wind Chill: 57°   Ceiling: 500
Heat Index: 57°   Visibility: 2.5mi
Dew Point: 55°   Wind: 7mph
Humidity: 94%   Direction: 60°ENE
Pressure: 29.68"   Gusts: NA
Location:  44.94°N, 26.03°E
Report Text: LROP 221000Z 06006KT 4000 FEW004 BKN005 14/13 Q1005 NOSIG
Loading
Personal Weather Stations






























Interactive Weather Map
Tropical Storm Tracking
New forecast layout! Learn more

10-Day Weather Forecast

Advertisements
Track Severe Weather on mobile